Time;durP1;ratioP1;P1;durP2;ratioP2;P2;SDS_P1;SDS_P2;PMS_P1;PMS_P2;Temp;Humidity;BMP_temperature;BMP_pressure;BME280_temperature;BME280_humidity;BME280_pressure;Samples;Min_cycle;Max_cycle;Signal;HPM_P1;HPM_P2
2024/03/28 00:01:35;;;;;;;6.00;0.65;;;11.90;96.70;;;;;;5068598;28;20152;-70
2024/03/28 00:04:03;;;;;;;4.68;0.82;;;11.80;96.70;;;;;;5091099;28;20056;-70
2024/03/28 00:06:34;;;;;;;3.10;0.50;;;11.90;96.70;;;;;;5070161;28;20126;-70
2024/03/28 00:09:02;;;;;;;2.95;0.77;;;11.80;96.70;;;;;;5090735;28;20146;-70
2024/03/28 00:11:30;;;;;;;3.78;0.50;;;11.80;96.70;;;;;;5074375;28;20534;-70
2024/03/28 00:13:58;;;;;;;2.33;0.40;;;11.80;96.70;;;;;;5089461;28;20565;-69
2024/03/28 00:16:25;;;;;;;4.88;0.68;;;11.80;96.70;;;;;;5084552;28;20036;-70
2024/03/28 00:18:56;;;;;;;3.03;0.70;;;11.80;96.70;;;;;;5068223;28;20097;-71
2024/03/28 00:21:23;;;;;;;3.90;0.75;;;11.80;96.70;;;;;;5090588;28;20043;-70
2024/03/28 00:23:52;;;;;;;5.90;1.02;;;11.80;96.70;;;;;;5090606;28;20126;-70
2024/03/28 00:26:19;;;;;;;4.45;0.70;;;11.80;96.70;;;;;;5089993;28;20039;-70
2024/03/28 00:28:47;;;;;;;6.97;0.60;;;11.80;96.70;;;;;;5088829;28;20052;-70
2024/03/28 00:31:14;;;;;;;4.38;0.80;;;11.70;96.70;;;;;;5089284;28;20047;-70
2024/03/28 00:33:43;;;;;;;4.22;0.82;;;11.80;96.70;;;;;;5073729;28;20047;-70
2024/03/28 00:36:11;;;;;;;3.95;0.47;;;12.00;96.70;;;;;;5087583;28;20043;-70
2024/03/28 00:38:39;;;;;;;3.10;0.63;;;12.10;96.70;;;;;;5090242;28;20445;-71
2024/03/28 00:41:11;;;;;;;1.45;0.30;;;12.10;96.70;;;;;;5088669;28;20138;-71
2024/03/28 00:43:39;;;;;;;2.72;0.40;;;12.20;96.70;;;;;;5081242;28;20132;-70
2024/03/28 00:46:07;;;;;;;5.57;1.00;;;12.20;96.70;;;;;;5072720;28;20043;-71
2024/03/28 00:48:34;;;;;;;5.47;0.63;;;12.20;96.70;;;;;;5089476;28;20047;-71
2024/03/28 00:51:03;;;;;;;3.80;0.50;;;12.30;96.70;;;;;;5089811;28;20039;-71
2024/03/28 00:53:31;;;;;;;3.05;0.90;;;12.30;96.70;;;;;;5089485;28;20067;-71
2024/03/28 00:56:00;;;;;;;4.57;1.10;;;12.30;96.70;;;;;;5089351;28;20069;-70
2024/03/28 00:58:28;;;;;;;5.88;0.63;;;12.30;96.70;;;;;;5094254;27;20047;-71
2024/03/28 01:00:56;;;;;;;3.22;0.43;;;12.30;96.70;;;;;;5088849;28;20075;-70
2024/03/28 01:03:24;;;;;;;1.33;0.30;;;12.30;96.70;;;;;;5073001;28;20096;-70
2024/03/28 01:05:57;;;;;;;5.70;0.98;;;12.40;96.70;;;;;;5073751;28;20094;-71
2024/03/28 01:08:27;;;;;;;2.72;0.77;;;12.40;96.70;;;;;;5071867;28;20559;-70
2024/03/28 01:10:55;;;;;;;4.47;0.90;;;12.40;96.70;;;;;;5055888;28;20051;-71
2024/03/28 01:13:23;;;;;;;3.83;1.17;;;12.30;96.70;;;;;;5071854;28;20139;-71
2024/03/28 01:15:52;;;;;;;5.45;1.15;;;12.30;96.70;;;;;;5087991;28;20050;-71
2024/03/28 01:18:21;;;;;;;1.83;0.60;;;12.20;96.70;;;;;;5069825;28;20073;-71
2024/03/28 01:20:50;;;;;;;2.38;0.65;;;12.10;96.70;;;;;;5071743;28;20134;-70
2024/03/28 01:23:20;;;;;;;3.33;0.50;;;12.10;96.70;;;;;;5086835;28;20046;-71
2024/03/28 01:25:47;;;;;;;1.17;0.30;;;12.10;96.70;;;;;;5071613;28;20057;-71
2024/03/28 01:28:15;;;;;;;5.35;0.40;;;12.00;96.70;;;;;;5087745;28;20074;-70
2024/03/28 01:30:43;;;;;;;2.90;0.35;;;12.00;96.70;;;;;;5074859;28;20458;-71
2024/03/28 01:33:17;;;;;;;2.08;0.47;;;12.00;96.70;;;;;;5089796;28;20126;-71
2024/03/28 01:35:45;;;;;;;0.95;0.28;;;12.00;96.70;;;;;;5080776;27;20048;-70
2024/03/28 01:38:13;;;;;;;2.38;0.50;;;12.00;96.70;;;;;;5089118;28;20046;-71
2024/03/28 01:40:42;;;;;;;1.60;0.32;;;12.00;96.70;;;;;;5088832;28;20085;-71
2024/03/28 01:43:10;;;;;;;1.33;0.40;;;11.90;96.70;;;;;;5073540;28;20086;-70
2024/03/28 01:45:38;;;;;;;4.38;0.32;;;11.90;96.70;;;;;;5089093;28;20039;-71
2024/03/28 01:48:09;;;;;;;1.88;0.30;;;11.90;96.70;;;;;;5088466;28;20032;-72
2024/03/28 01:50:38;;;;;;;3.75;0.52;;;11.80;96.70;;;;;;5088315;28;21022;-70
2024/03/28 01:53:06;;;;;;;3.10;0.40;;;11.80;96.70;;;;;;5071399;28;20043;-71
2024/03/28 01:55:33;;;;;;;2.00;0.20;;;11.80;96.70;;;;;;5088459;28;20040;-71
2024/03/28 01:58:04;;;;;;;4.97;0.40;;;11.80;96.70;;;;;;5074632;28;20031;-71
2024/03/28 02:00:33;;;;;;;2.85;0.50;;;11.80;96.70;;;;;;5054819;28;20047;-71
2024/03/28 02:03:01;;;;;;;4.40;0.60;;;11.80;96.70;;;;;;5062845;28;20061;-70
2024/03/28 02:05:32;;;;;;;3.47;0.63;;;11.80;96.70;;;;;;5071878;28;20039;-71
2024/03/28 02:08:01;;;;;;;4.88;0.47;;;11.80;96.70;;;;;;5088668;28;20051;-71
2024/03/28 02:10:34;;;;;;;3.13;0.40;;;11.80;96.70;;;;;;5086854;28;20042;-71
2024/03/28 02:13:02;;;;;;;3.95;1.10;;;11.80;96.70;;;;;;5051832;28;20052;-71
2024/03/28 02:15:29;;;;;;;2.40;0.30;;;11.80;96.70;;;;;;5070536;28;20036;-70
2024/03/28 02:17:59;;;;;;;3.95;0.55;;;11.80;96.70;;;;;;5084157;28;20089;-72
2024/03/28 02:20:27;;;;;;;3.78;0.45;;;11.90;96.70;;;;;;5088395;28;20055;-72
2024/03/28 02:22:57;;;;;;;1.52;0.30;;;11.90;96.70;;;;;;5088851;28;20092;-71
2024/03/28 02:25:26;;;;;;;1.63;0.30;;;11.90;96.70;;;;;;5087563;28;20047;-71
2024/03/28 02:27:53;;;;;;;3.40;0.32;;;11.90;96.70;;;;;;5085869;28;20074;-71
2024/03/28 02:30:20;;;;;;;2.22;0.25;;;11.90;96.70;;;;;;5087917;28;20134;-71
2024/03/28 02:32:49;;;;;;;4.72;0.57;;;12.00;96.70;;;;;;5088446;28;20088;-71
2024/03/28 02:35:16;;;;;;;3.50;0.35;;;11.90;96.70;;;;;;5087282;28;20154;-71
2024/03/28 02:37:45;;;;;;;3.20;0.40;;;11.90;96.70;;;;;;5071856;28;20532;-70
2024/03/28 02:40:16;;;;;;;1.98;0.40;;;11.90;96.70;;;;;;5054032;28;20175;-71
2024/03/28 02:42:44;;;;;;;2.55;0.50;;;11.90;96.70;;;;;;5065055;28;20509;-71
2024/03/28 02:45:12;;;;;;;2.13;0.50;;;11.90;96.70;;;;;;5070634;28;20500;-71
2024/03/28 02:47:39;;;;;;;2.67;0.38;;;11.90;96.70;;;;;;5087450;28;20036;-71
2024/03/28 02:50:08;;;;;;;7.57;1.42;;;11.90;96.70;;;;;;5087720;28;20097;-71
2024/03/28 02:52:36;;;;;;;3.67;0.52;;;11.90;96.70;;;;;;5084733;28;20048;-71
2024/03/28 02:55:04;;;;;;;1.95;0.45;;;11.90;96.70;;;;;;5086800;28;20064;-71
2024/03/28 02:57:33;;;;;;;2.80;0.50;;;11.90;96.70;;;;;;5087824;28;20036;-71
2024/03/28 03:00:03;;;;;;;2.33;0.22;;;11.80;96.70;;;;;;5087700;28;20071;-71
2024/03/28 03:02:32;;;;;;;4.00;0.63;;;11.90;96.70;;;;;;5087159;28;20043;-71
2024/03/28 03:04:59;;;;;;;1.52;0.40;;;11.80;96.70;;;;;;5071583;28;20508;-71
2024/03/28 03:07:29;;;;;;;1.75;0.38;;;11.80;96.70;;;;;;5089497;28;20036;-70
2024/03/28 03:10:01;;;;;;;1.10;0.20;;;11.90;96.70;;;;;;5088044;28;20066;-71
2024/03/28 03:12:29;;;;;;;3.75;0.45;;;11.90;96.70;;;;;;5075994;28;20531;-70
2024/03/28 03:14:59;;;;;;;3.20;0.30;;;11.90;96.70;;;;;;5058253;28;20051;-71
2024/03/28 03:17:28;;;;;;;2.65;0.35;;;11.90;96.70;;;;;;5074775;28;20144;-71
2024/03/28 03:19:58;;;;;;;2.13;0.30;;;11.90;96.70;;;;;;5090572;28;20075;-71
2024/03/28 03:22:28;;;;;;;2.88;0.40;;;11.90;96.70;;;;;;5068100;28;20044;-71
2024/03/28 03:24:58;;;;;;;1.38;0.28;;;11.90;96.70;;;;;;5074409;28;20073;-71
2024/03/28 03:27:32;;;;;;;3.65;0.52;;;11.80;96.70;;;;;;5085971;27;20051;-72
2024/03/28 03:35:36;;;;;;;2.22;0.32;;;11.80;96.70;;;;;;5070662;28;20070;-71
2024/03/28 03:38:05;;;;;;;3.53;0.60;;;11.80;96.70;;;;;;5089338;28;20143;-71
2024/03/28 03:40:33;;;;;;;1.65;0.57;;;11.80;96.70;;;;;;5074354;28;20054;-71
2024/03/28 03:43:00;;;;;;;2.65;0.30;;;11.80;96.70;;;;;;5087004;28;20482;-70
2024/03/28 03:45:30;;;;;;;1.67;0.40;;;11.70;96.70;;;;;;5090692;27;20636;-71
2024/03/28 03:47:58;;;;;;;1.52;0.40;;;11.70;96.70;;;;;;5091093;28;20591;-71
2024/03/28 03:50:28;;;;;;;1.60;0.30;;;11.70;96.70;;;;;;5090412;27;20048;-71
2024/03/28 03:52:56;;;;;;;1.60;0.40;;;11.70;96.70;;;;;;5085776;28;20036;-72
2024/03/28 03:55:23;;;;;;;1.55;0.28;;;11.70;96.70;;;;;;5090757;28;20047;-71
2024/03/28 03:57:54;;;;;;;3.75;0.30;;;11.70;96.70;;;;;;5091056;28;20174;-71
2024/03/28 04:00:23;;;;;;;1.55;0.20;;;11.80;96.70;;;;;;5086954;28;20135;-71
2024/03/28 04:02:53;;;;;;;2.42;0.40;;;11.80;96.70;;;;;;5074210;28;20071;-71
2024/03/28 04:05:21;;;;;;;2.10;0.35;;;11.80;96.70;;;;;;5089943;28;20089;-71
2024/03/28 04:07:49;;;;;;;4.30;0.40;;;11.80;96.70;;;;;;5090061;28;20502;-71
2024/03/28 04:10:17;;;;;;;2.45;0.30;;;11.80;96.70;;;;;;5090197;28;20524;-72
2024/03/28 04:12:45;;;;;;;1.80;0.30;;;11.80;96.70;;;;;;5089637;28;20044;-70
2024/03/28 04:15:15;;;;;;;3.50;0.40;;;11.70;96.70;;;;;;5073775;28;20046;-71
2024/03/28 04:17:43;;;;;;;1.23;0.10;;;11.70;96.70;;;;;;5067933;28;20035;-71
2024/03/28 04:20:13;;;;;;;3.25;0.50;;;11.70;96.70;;;;;;5081794;28;20137;-71
2024/03/28 04:22:40;;;;;;;1.00;0.30;;;11.70;96.70;;;;;;5090110;28;20112;-72
2024/03/28 04:25:08;;;;;;;1.10;0.30;;;11.70;96.70;;;;;;5090230;28;20050;-71
2024/03/28 04:27:36;;;;;;;1.77;0.68;;;11.60;96.70;;;;;;5072451;27;20051;-71
2024/03/28 04:30:06;;;;;;;2.00;0.22;;;11.50;96.70;;;;;;5068175;28;20089;-71
2024/03/28 04:32:35;;;;;;;3.35;0.35;;;11.40;96.70;;;;;;5056549;28;20146;-71
2024/03/28 04:35:04;;;;;;;1.95;0.50;;;11.40;96.70;;;;;;5089321;27;20092;-71
2024/03/28 04:37:33;;;;;;;2.33;0.30;;;11.40;96.70;;;;;;5075847;28;20042;-71
2024/03/28 04:40:01;;;;;;;1.77;0.30;;;11.40;96.70;;;;;;5089770;28;20032;-71
2024/03/28 04:42:28;;;;;;;2.40;0.28;;;11.40;96.70;;;;;;5086754;28;20040;-71
2024/03/28 04:44:59;;;;;;;4.03;0.68;;;11.50;96.70;;;;;;5089570;28;20054;-72
2024/03/28 04:47:28;;;;;;;2.55;0.40;;;11.50;96.70;;;;;;5089780;28;20096;-70
2024/03/28 04:49:57;;;;;;;3.83;0.40;;;11.50;96.70;;;;;;5089078;28;20067;-71
2024/03/28 04:52:24;;;;;;;2.10;0.38;;;11.50;96.70;;;;;;5071728;28;20480;-70
2024/03/28 04:54:56;;;;;;;4.10;0.55;;;11.50;96.70;;;;;;5073058;28;20159;-71
2024/03/28 04:57:25;;;;;;;1.70;0.40;;;11.50;96.70;;;;;;5089218;28;20046;-71
2024/03/28 04:59:53;;;;;;;2.10;0.30;;;11.50;96.70;;;;;;5088938;28;20056;-70
2024/03/28 05:02:23;;;;;;;2.05;0.30;;;11.40;96.70;;;;;;5071612;28;20056;-71
2024/03/28 05:04:50;;;;;;;1.50;0.32;;;11.50;96.70;;;;;;5073058;28;20039;-71
2024/03/28 05:07:19;;;;;;;1.13;0.30;;;11.40;96.70;;;;;;5086755;28;20040;-70
2024/03/28 05:09:47;;;;;;;2.75;0.32;;;11.40;96.70;;;;;;5087184;28;20063;-71
2024/03/28 05:12:16;;;;;;;2.10;0.40;;;11.40;96.70;;;;;;5052965;28;20066;-70
2024/03/28 05:14:44;;;;;;;2.50;0.35;;;11.40;96.70;;;;;;5087964;28;20075;-70
2024/03/28 05:17:13;;;;;;;2.28;0.40;;;11.40;96.70;;;;;;5086132;28;20044;-71
2024/03/28 05:19:41;;;;;;;1.17;0.57;;;11.40;96.70;;;;;;5087534;28;20051;-71
2024/03/28 05:22:09;;;;;;;4.15;0.40;;;11.40;96.70;;;;;;5087937;28;20044;-70
2024/03/28 05:24:38;;;;;;;1.17;0.20;;;11.40;96.70;;;;;;5084341;28;20117;-71
2024/03/28 05:27:07;;;;;;;2.25;0.60;;;11.30;96.70;;;;;;5064106;28;20054;-70
2024/03/28 05:29:37;;;;;;;1.83;0.40;;;11.30;96.70;;;;;;5089254;28;20116;-71
2024/03/28 05:32:07;;;;;;;1.55;0.40;;;11.30;96.70;;;;;;5087138;28;20077;-70
2024/03/28 05:34:34;;;;;;;1.48;0.32;;;11.30;96.70;;;;;;5087573;28;20039;-71
2024/03/28 05:37:02;;;;;;;2.63;0.50;;;11.30;96.70;;;;;;5071361;28;20050;-70
2024/03/28 05:39:30;;;;;;;4.03;0.57;;;11.30;96.70;;;;;;5080577;28;20088;-70
2024/03/28 05:41:58;;;;;;;3.45;0.40;;;11.30;96.70;;;;;;5084127;28;20040;-70
2024/03/28 05:44:25;;;;;;;2.45;0.60;;;11.30;96.70;;;;;;5069927;28;20112;-70
2024/03/28 05:46:55;;;;;;;2.90;0.55;;;11.20;96.70;;;;;;5089289;28;20043;-70
2024/03/28 05:49:24;;;;;;;0.95;0.40;;;11.20;96.70;;;;;;5071661;28;20044;-70
2024/03/28 05:51:52;;;;;;;2.25;0.45;;;11.20;96.70;;;;;;5088227;28;20039;-70
2024/03/28 05:54:21;;;;;;;1.77;0.35;;;11.20;96.70;;;;;;5056085;28;20062;-71
2024/03/28 05:56:50;;;;;;;2.65;0.50;;;11.20;96.70;;;;;;5088111;28;20047;-70
2024/03/28 05:59:17;;;;;;;2.97;0.50;;;11.30;96.70;;;;;;5085161;28;20108;-70
2024/03/28 06:01:46;;;;;;;3.47;0.68;;;11.30;96.70;;;;;;5088074;28;20346;-73
2024/03/28 06:04:19;;;;;;;4.20;0.70;;;11.30;96.70;;;;;;5087706;28;20047;-73
2024/03/28 06:06:47;;;;;;;1.05;0.50;;;11.40;96.70;;;;;;5083668;28;20461;-73
2024/03/28 06:09:18;;;;;;;2.50;0.45;;;11.40;96.70;;;;;;5090892;28;20067;-73
2024/03/28 06:11:45;;;;;;;2.40;0.50;;;11.40;96.70;;;;;;5087731;28;20039;-72
2024/03/28 06:14:13;;;;;;;2.72;0.60;;;11.40;96.70;;;;;;5087104;28;20043;-72
2024/03/28 06:16:42;;;;;;;2.78;0.50;;;11.50;96.70;;;;;;5086565;28;20070;-72
2024/03/28 06:19:14;;;;;;;1.75;0.35;;;11.40;96.70;;;;;;5081762;28;20072;-73
2024/03/28 06:21:45;;;;;;;4.38;0.60;;;11.40;96.70;;;;;;5071563;28;20054;-73
2024/03/28 06:24:13;;;;;;;2.55;0.50;;;11.50;96.70;;;;;;5087989;28;20067;-71
2024/03/28 06:26:40;;;;;;;1.65;0.40;;;11.50;96.70;;;;;;5104765;28;20040;-72
2024/03/28 06:29:08;;;;;;;3.35;0.80;;;11.50;96.70;;;;;;5087108;28;20052;-73
2024/03/28 06:31:40;;;;;;;2.65;0.55;;;11.50;96.70;;;;;;5087697;28;20035;-73
2024/03/28 06:34:07;;;;;;;5.40;1.30;;;11.60;96.70;;;;;;5086322;28;20104;-72
2024/03/28 06:36:35;;;;;;;4.43;0.80;;;11.60;96.70;;;;;;5070929;28;20047;-72
2024/03/28 06:39:06;;;;;;;4.57;0.90;;;11.60;96.70;;;;;;5088284;28;20042;-72
2024/03/28 06:41:33;;;;;;;1.98;0.60;;;11.60;96.70;;;;;;5075265;28;20585;-72
2024/03/28 06:44:02;;;;;;;2.22;0.63;;;11.60;96.70;;;;;;5075062;28;20096;-72
2024/03/28 06:46:29;;;;;;;1.63;0.68;;;11.60;96.70;;;;;;5074983;28;20138;-71
2024/03/28 06:48:57;;;;;;;2.92;0.73;;;11.60;96.70;;;;;;5088813;28;20040;-72
2024/03/28 06:51:25;;;;;;;5.20;1.27;;;11.50;96.70;;;;;;5091164;28;20043;-72
2024/03/28 06:53:53;;;;;;;5.68;1.23;;;11.60;96.70;;;;;;5074230;27;20047;-73
2024/03/28 06:56:22;;;;;;;4.25;1.17;;;11.70;96.70;;;;;;5091274;28;20555;-73
2024/03/28 06:58:51;;;;;;;5.40;1.90;;;11.80;96.70;;;;;;5085754;28;20054;-71
2024/03/28 07:01:19;;;;;;;7.03;1.70;;;11.90;96.70;;;;;;5091716;28;20561;-72
2024/03/28 07:03:46;;;;;;;7.47;1.95;;;11.90;96.70;;;;;;5093905;27;20043;-71
2024/03/28 07:06:14;;;;;;;8.65;1.55;;;11.80;96.70;;;;;;5076775;28;20055;-71
2024/03/28 07:08:42;;;;;;;7.00;1.60;;;12.10;96.70;;;;;;5089814;28;20039;-71
2024/03/28 07:11:09;;;;;;;6.25;1.42;;;12.20;96.70;;;;;;5091433;28;20130;-71
2024/03/28 07:13:40;;;;;;;15.57;5.50;;;12.40;96.70;;;;;;5074803;28;20059;-71
2024/03/28 07:16:08;;;;;;;10.80;3.95;;;12.50;96.70;;;;;;5090559;28;20042;-71
2024/03/28 07:18:36;;;;;;;12.63;2.85;;;12.90;96.70;;;;;;5091218;28;20522;-73
2024/03/28 07:21:03;;;;;;;11.65;2.30;;;13.20;96.70;;;;;;5074671;28;20052;-72
2024/03/28 07:23:31;;;;;;;15.25;3.10;;;13.50;96.70;;;;;;5069171;28;20071;-70
2024/03/28 07:26:00;;;;;;;15.40;2.53;;;13.60;96.70;;;;;;5091073;28;20542;-73
2024/03/28 07:28:28;;;;;;;11.35;2.92;;;13.80;96.70;;;;;;5091480;28;20047;-70
2024/03/28 07:30:58;;;;;;;12.05;2.35;;;14.00;96.70;;;;;;5090295;28;20042;-71
2024/03/28 07:33:25;;;;;;;13.82;3.00;;;14.10;96.70;;;;;;5087758;28;20055;-71
2024/03/28 07:35:54;;;;;;;11.45;2.00;;;14.20;96.70;;;;;;5074964;28;20062;-72
2024/03/28 07:38:21;;;;;;;14.43;2.85;;;14.20;96.70;;;;;;5090622;28;20072;-71
2024/03/28 07:40:50;;;;;;;11.00;2.33;;;14.30;96.70;;;;;;5069761;28;20044;-72
2024/03/28 07:43:19;;;;;;;15.20;2.65;;;14.30;96.70;;;;;;5091051;28;20131;-72
2024/03/28 07:45:47;;;;;;;11.55;2.47;;;14.30;96.70;;;;;;5074297;28;20134;-72
2024/03/28 07:48:18;;;;;;;13.90;2.95;;;14.40;96.70;;;;;;5057860;28;20492;-69
2024/03/28 07:50:58;;;;;;;13.35;2.00;;;14.40;96.70;;;;;;5087466;28;20131;-72
2024/03/28 07:53:27;;;;;;;13.98;3.45;;;14.50;96.70;;;;;;5091276;28;20170;-72
2024/03/28 07:55:55;;;;;;;15.05;3.67;;;14.50;96.70;;;;;;5070868;28;20170;-71
2024/03/28 07:58:27;;;;;;;14.13;2.70;;;14.60;96.70;;;;;;5086276;28;20817;-72
2024/03/28 08:01:02;;;;;;;15.13;2.60;;;14.60;96.70;;;;;;5090928;28;20480;-72
2024/03/28 08:03:34;;;;;;;12.77;2.55;;;14.70;96.70;;;;;;5083216;28;20047;-72
2024/03/28 08:06:01;;;;;;;10.77;2.65;;;14.80;96.70;;;;;;5073939;28;20043;-72
2024/03/28 08:08:28;;;;;;;10.45;2.28;;;14.90;96.70;;;;;;5090763;28;20043;-70
2024/03/28 08:10:57;;;;;;;16.27;3.42;;;14.80;96.70;;;;;;5073182;28;20043;-71
2024/03/28 08:13:25;;;;;;;14.13;2.60;;;14.80;96.70;;;;;;5090185;28;20116;-72
2024/03/28 08:15:53;;;;;;;12.00;3.03;;;14.80;96.70;;;;;;5072020;28;20804;-71
2024/03/28 08:18:22;;;;;;;11.30;3.05;;;14.90;96.70;;;;;;5073785;28;20040;-72
2024/03/28 08:20:53;;;;;;;14.25;3.25;;;14.90;96.70;;;;;;5090373;28;20071;-68
2024/03/28 08:23:25;;;;;;;15.15;3.35;;;15.00;96.70;;;;;;5090979;28;20055;-73
2024/03/28 08:25:54;;;;;;;15.57;3.60;;;15.00;96.70;;;;;;5089791;28;20067;-70
2024/03/28 08:28:22;;;;;;;11.68;3.75;;;15.10;96.70;;;;;;5081795;28;20072;-70
2024/03/28 08:30:50;;;;;;;13.75;3.00;;;15.20;96.70;;;;;;5090042;28;20048;-70
2024/03/28 08:33:19;;;;;;;17.42;5.72;;;15.30;96.70;;;;;;5085697;28;20047;-70
2024/03/28 08:35:47;;;;;;;15.55;2.75;;;15.30;96.70;;;;;;5090474;28;20047;-71
2024/03/28 08:38:17;;;;;;;12.60;3.83;;;15.40;96.70;;;;;;5083148;28;20032;-70
2024/03/28 08:40:46;;;;;;;9.90;2.65;;;15.50;96.70;;;;;;5089894;28;20047;-70
2024/03/28 08:43:13;;;;;;;10.73;2.28;;;15.50;96.70;;;;;;5090101;28;20051;-71
2024/03/28 08:45:42;;;;;;;10.27;2.63;;;15.50;96.70;;;;;;5085410;28;20542;-71
2024/03/28 08:48:12;;;;;;;13.13;3.30;;;15.40;96.70;;;;;;5084451;28;20044;-71
2024/03/28 08:50:39;;;;;;;11.50;3.28;;;15.40;96.70;;;;;;5084499;28;20046;-71
2024/03/28 08:53:07;;;;;;;13.55;3.88;;;15.50;96.70;;;;;;5086620;28;20055;-70
2024/03/28 08:55:38;;;;;;;13.45;2.78;;;15.50;96.70;;;;;;5055891;28;20156;-72
2024/03/28 08:58:06;;;;;;;13.13;2.88;;;15.50;96.70;;;;;;5072747;28;20104;-72
2024/03/28 09:00:34;;;;;;;15.38;3.63;;;15.60;96.70;;;;;;5089825;28;20078;-73
2024/03/28 09:03:05;;;;;;;17.10;3.70;;;15.70;96.70;;;;;;5089579;28;20054;-73
2024/03/28 09:05:35;;;;;;;18.13;3.60;;;15.80;96.70;;;;;;5069571;28;20040;-69
2024/03/28 09:08:07;;;;;;;18.33;4.53;;;15.80;96.70;;;;;;5064566;28;20078;-70
2024/03/28 09:10:39;;;;;;;15.65;3.20;;;15.80;96.70;;;;;;5072486;28;20054;-69
2024/03/28 09:13:06;;;;;;;11.77;2.83;;;15.70;96.70;;;;;;5089722;28;20100;-71
2024/03/28 09:15:35;;;;;;;15.05;2.97;;;15.70;96.70;;;;;;5089473;28;20104;-72
2024/03/28 09:18:05;;;;;;;16.75;3.55;;;15.60;96.70;;;;;;5071745;28;20049;-71
2024/03/28 09:20:33;;;;;;;15.95;3.58;;;15.60;96.70;;;;;;5081493;28;20592;-71
2024/03/28 09:23:02;;;;;;;13.50;2.97;;;15.60;96.70;;;;;;5084952;28;20069;-72
2024/03/28 09:25:30;;;;;;;13.10;2.92;;;15.60;96.70;;;;;;5089081;28;20063;-71
2024/03/28 09:28:01;;;;;;;19.98;4.10;;;15.60;96.70;;;;;;5086616;28;20048;-71
2024/03/28 09:30:31;;;;;;;20.17;3.97;;;15.60;96.70;;;;;;5072270;28;20043;-71
2024/03/28 09:33:00;;;;;;;16.13;3.42;;;15.70;96.70;;;;;;5080752;28;20389;-72
2024/03/28 09:35:29;;;;;;;18.15;4.18;;;15.70;96.70;;;;;;5089660;28;20134;-71
2024/03/28 09:37:57;;;;;;;17.25;3.80;;;15.70;96.70;;;;;;5089038;28;20040;-70
2024/03/28 09:40:28;;;;;;;19.00;3.55;;;15.60;96.70;;;;;;5083716;28;20679;-70
2024/03/28 09:42:56;;;;;;;20.63;3.92;;;15.70;96.70;;;;;;5088812;28;20047;-71
2024/03/28 09:45:28;;;;;;;14.20;3.17;;;15.70;96.70;;;;;;5088852;28;20043;-71
2024/03/28 09:47:57;;;;;;;20.15;4.57;;;15.70;96.70;;;;;;5071620;28;20054;-71
2024/03/28 09:50:28;;;;;;;20.13;3.88;;;15.80;96.70;;;;;;5088637;28;20048;-72
2024/03/28 09:52:58;;;;;;;24.30;3.95;;;15.80;96.70;;;;;;5084923;28;20052;-71
2024/03/28 09:55:26;;;;;;;23.33;5.05;;;16.00;96.70;;;;;;5070277;28;20054;-72
2024/03/28 09:57:53;;;;;;;16.23;4.38;;;16.10;96.70;;;;;;5083968;28;20506;-71
2024/03/28 10:00:23;;;;;;;22.05;4.72;;;16.20;96.70;;;;;;5071799;28;20067;-72
2024/03/28 10:02:59;;;;;;;23.30;4.55;;;16.30;96.70;;;;;;5083654;28;20546;-71
2024/03/28 10:05:28;;;;;;;26.08;4.93;;;16.50;96.70;;;;;;5071319;28;20071;-71
2024/03/28 10:07:57;;;;;;;26.13;5.15;;;16.60;96.70;;;;;;5088165;28;20040;-71
2024/03/28 10:10:26;;;;;;;19.65;4.28;;;16.80;96.70;;;;;;5085884;28;20141;-71
2024/03/28 10:12:54;;;;;;;21.80;4.22;;;16.90;96.70;;;;;;5088573;28;20051;-72
2024/03/28 10:15:26;;;;;;;18.52;5.03;;;17.00;96.70;;;;;;5066337;28;20500;-71
2024/03/28 10:18:05;;;;;;;22.67;4.88;;;17.10;96.70;;;;;;5088659;28;20076;-70
2024/03/28 10:20:34;;;;;;;20.30;4.38;;;17.10;96.70;;;;;;5071480;28;20051;-70
2024/03/28 10:23:02;;;;;;;24.35;5.00;;;17.20;96.70;;;;;;5088650;28;20119;-71
2024/03/28 10:25:33;;;;;;;24.33;5.63;;;17.30;96.70;;;;;;5070974;28;20763;-71
2024/03/28 10:28:02;;;;;;;20.90;4.40;;;17.50;96.70;;;;;;5087800;28;20771;-71
2024/03/28 10:30:32;;;;;;;26.23;4.43;;;17.70;96.70;;;;;;5083176;28;20048;-71
2024/03/28 10:33:07;;;;;;;20.27;4.70;;;17.90;96.70;;;;;;5088389;28;20067;-68
2024/03/28 10:35:35;;;;;;;21.75;5.30;;;18.00;96.70;;;;;;5088042;28;20043;-71
2024/03/28 10:38:07;;;;;;;24.63;6.43;;;17.90;96.70;;;;;;5070827;28;20043;-70
2024/03/28 10:40:37;;;;;;;17.52;5.07;;;17.90;96.70;;;;;;5088100;28;20134;-71
2024/03/28 10:43:06;;;;;;;21.55;5.00;;;17.90;96.70;;;;;;5087637;28;20112;-70
2024/03/28 10:45:38;;;;;;;23.52;4.60;;;17.90;96.70;;;;;;5063355;28;20056;-71
2024/03/28 10:48:15;;;;;;;18.90;4.47;;;17.90;96.70;;;;;;5054943;28;20036;-70
2024/03/28 10:50:54;;;;;;;18.08;5.05;;;17.90;96.70;;;;;;5088246;28;20064;-70
2024/03/28 10:53:28;;;;;;;22.98;4.78;;;17.80;96.70;;;;;;5087425;28;20039;-70
2024/03/28 10:56:04;;;;;;;33.13;5.93;;;17.70;96.70;;;;;;5087949;28;20054;-70
2024/03/28 10:58:34;;;;;;;20.75;4.75;;;17.70;96.70;;;;;;5088109;28;20187;-70
2024/03/28 11:01:02;;;;;;;23.83;4.82;;;17.60;96.70;;;;;;5087483;28;20047;-69
2024/03/28 11:03:32;;;;;;;23.52;5.75;;;17.50;96.70;;;;;;5070645;28;20104;-70
2024/03/28 11:06:02;;;;;;;22.52;4.35;;;17.40;96.70;;;;;;5068179;28;20073;-70
2024/03/28 11:08:31;;;;;;;24.33;5.72;;;17.40;96.70;;;;;;5050783;28;20043;-70
2024/03/28 11:11:02;;;;;;;23.50;5.30;;;17.60;96.70;;;;;;5088126;28;20515;-70
2024/03/28 11:13:32;;;;;;;21.08;5.22;;;17.80;96.70;;;;;;5088298;28;20111;-70
2024/03/28 11:16:04;;;;;;;21.40;5.07;;;17.80;96.70;;;;;;5086867;28;20050;-70
2024/03/28 11:18:33;;;;;;;22.33;5.22;;;17.90;96.70;;;;;;5088338;28;21430;-70
2024/03/28 11:21:03;;;;;;;21.10;5.00;;;18.10;96.70;;;;;;5087689;28;20051;-70
2024/03/28 11:23:33;;;;;;;19.77;5.07;;;18.10;96.70;;;;;;5084299;28;20127;-70
2024/03/28 11:26:05;;;;;;;25.42;5.80;;;18.10;96.70;;;;;;5072554;28;20059;-70
2024/03/28 11:28:34;;;;;;;18.02;4.45;;;18.30;96.70;;;;;;5091345;28;20073;-71
2024/03/28 11:31:02;;;;;;;20.52;4.93;;;18.40;96.70;;;;;;5091603;28;20048;-71
2024/03/28 11:33:33;;;;;;;23.88;4.85;;;18.60;96.70;;;;;;5074529;28;20449;-71
2024/03/28 11:36:03;;;;;;;19.73;4.32;;;18.70;96.70;;;;;;5087844;28;20040;-71
2024/03/28 11:38:34;;;;;;;21.25;4.05;;;18.70;96.70;;;;;;5086817;28;20580;-70
2024/03/28 11:41:03;;;;;;;20.55;4.25;;;18.80;96.70;;;;;;5091040;28;20048;-70
2024/03/28 11:43:34;;;;;;;18.98;4.65;;;19.00;96.70;;;;;;5091079;28;20044;-70
2024/03/28 11:46:05;;;;;;;19.27;4.25;;;19.10;96.70;;;;;;5090968;28;20063;-70
2024/03/28 11:48:36;;;;;;;19.10;4.65;;;19.20;96.70;;;;;;5090950;28;20375;-71
2024/03/28 11:51:04;;;;;;;17.75;4.65;;;19.50;96.70;;;;;;5090554;28;20035;-70
2024/03/28 11:53:34;;;;;;;17.15;4.72;;;19.60;96.70;;;;;;5106449;28;20138;-70
2024/03/28 11:56:03;;;;;;;21.08;5.10;;;19.20;96.70;;;;;;5085801;28;20040;-70
2024/03/28 11:58:31;;;;;;;25.02;5.80;;;19.10;96.70;;;;;;5090852;28;20084;-71
2024/03/28 12:01:00;;;;;;;18.98;6.15;;;19.20;96.70;;;;;;5089984;28;20039;-72
2024/03/28 12:03:29;;;;;;;16.35;4.55;;;19.30;96.70;;;;;;5089747;28;20492;-71
2024/03/28 12:06:00;;;;;;;19.67;5.22;;;19.10;96.70;;;;;;5089186;28;20191;-71
2024/03/28 12:08:33;;;;;;;20.80;4.72;;;19.00;96.70;;;;;;5089564;28;20116;-72
2024/03/28 12:11:04;;;;;;;23.95;5.47;;;19.00;96.70;;;;;;5087038;28;20527;-72
2024/03/28 12:13:39;;;;;;;24.08;6.10;;;19.20;96.70;;;;;;5087374;28;20031;-71
2024/03/28 12:16:10;;;;;;;27.15;5.88;;;19.50;96.70;;;;;;5088124;28;20105;-71
2024/03/28 12:18:41;;;;;;;25.63;5.57;;;19.50;96.70;;;;;;5072806;28;20066;-71
2024/03/28 12:21:17;;;;;;;22.50;5.40;;;19.80;96.70;;;;;;5090335;28;20043;-70
2024/03/28 12:23:44;;;;;;;18.92;4.80;;;19.70;96.70;;;;;;5090545;28;20047;-70
2024/03/28 12:26:18;;;;;;;21.60;4.85;;;20.10;96.70;;;;;;5084799;28;20485;-71
2024/03/28 12:28:47;;;;;;;18.00;4.50;;;19.90;96.70;;;;;;5062262;28;20055;-71
2024/03/28 12:31:21;;;;;;;20.27;5.15;;;19.90;96.70;;;;;;5067572;28;20119;-71
2024/03/28 12:33:50;;;;;;;19.48;4.30;;;20.00;96.70;;;;;;5054732;28;20449;-71
2024/03/28 12:36:23;;;;;;;18.00;4.63;;;20.10;96.70;;;;;;5071844;28;20074;-72
2024/03/28 12:38:51;;;;;;;18.27;4.60;;;20.20;96.70;;;;;;5057488;28;20044;-72
2024/03/28 12:41:20;;;;;;;18.58;4.18;;;20.30;96.70;;;;;;5061722;28;20044;-71
2024/03/28 12:44:00;;;;;;;19.13;4.88;;;20.20;96.70;;;;;;5057092;28;20143;-72
2024/03/28 12:46:28;;;;;;;18.63;4.18;;;20.40;96.70;;;;;;5074351;28;20393;-71
2024/03/28 12:48:57;;;;;;;21.33;5.47;;;20.40;96.70;;;;;;5067358;28;20049;-72
2024/03/28 12:51:29;;;;;;;25.92;5.40;;;20.20;96.70;;;;;;5044539;28;20071;-71
2024/03/28 12:53:58;;;;;;;25.33;5.68;;;20.40;96.70;;;;;;5068068;28;20052;-71
2024/03/28 12:56:27;;;;;;;22.42;4.57;;;20.30;96.70;;;;;;5028464;28;20550;-71
2024/03/28 12:58:57;;;;;;;19.45;4.60;;;20.40;96.70;;;;;;5051074;28;20052;-72